Time;durP1;ratioP1;P1;durP2;ratioP2;P2;SDS_P1;SDS_P2;PMS_P1;PMS_P2;Temp;Humidity;BMP_temperature;BMP_pressure;BME280_temperature;BME280_humidity;BME280_pressure;Samples;Min_cycle;Max_cycle;Signal;HPM_P1;HPM_P2
2023/10/17 00:02:12;;;;;;;10.50;8.30;;;;;;;9.94;70.90;100366.44;4982432;28;20050;-78
2023/10/17 00:04:41;;;;;;;16.85;8.48;;;;;;;9.91;70.94;100367.41;4974783;28;20487;-78
2023/10/17 00:07:09;;;;;;;13.63;8.65;;;;;;;9.88;71.26;100365.75;4982461;28;20066;-79
2023/10/17 00:09:39;;;;;;;11.35;8.45;;;;;;;9.86;71.17;100366.75;4991122;28;20069;-78
2023/10/17 00:14:44;;;;;;;13.63;8.60;;;;;;;9.81;71.07;100364.34;4978911;28;20054;-78
2023/10/17 00:17:15;;;;;;;13.60;9.48;;;;;;;9.80;71.35;100367.91;4971602;28;20059;-78
2023/10/17 00:19:44;;;;;;;10.95;8.48;;;;;;;9.78;71.53;100362.69;4971734;28;20097;-79
2023/10/17 00:22:16;;;;;;;17.35;8.93;;;;;;;9.78;71.60;100365.31;4973925;28;20113;-79
2023/10/17 00:24:46;;;;;;;11.32;7.63;;;;;;;9.78;71.63;100361.84;4984127;28;20549;-78
2023/10/17 00:27:13;;;;;;;8.70;7.53;;;;;;;9.78;71.54;100369.72;4988287;28;20093;-77
2023/10/17 00:29:40;;;;;;;12.05;8.25;;;;;;;9.77;71.87;100360.97;4975179;28;20522;-78
2023/10/17 00:32:09;;;;;;;10.63;8.18;;;;;;;9.78;71.24;100361.84;4975172;28;20467;-79
2023/10/17 00:34:36;;;;;;;12.43;7.95;;;;;;;9.77;71.24;100357.50;4981364;28;20136;-79
2023/10/17 00:37:10;;;;;;;10.52;7.88;;;;;;;9.76;71.29;100361.91;4994281;28;20666;-78
2023/10/17 00:39:38;;;;;;;11.75;8.23;;;;;;;9.77;71.24;100352.25;4994514;28;20483;-79
2023/10/17 00:44:36;;;;;;;9.98;8.30;;;;;;;9.74;71.06;100353.22;4990278;28;20045;-80
2023/10/17 00:47:08;;;;;;;16.38;8.32;;;;;;;9.73;71.28;100356.78;4974801;28;20109;-77
2023/10/17 00:49:43;;;;;;;23.48;9.50;;;;;;;9.70;71.18;100343.78;4974925;28;20055;-78
2023/10/17 00:52:20;;;;;;;27.30;9.93;;;;;;;9.69;71.34;100338.59;4974839;28;20058;-79
2023/10/17 00:54:48;;;;;;;39.58;10.73;;;;;;;9.68;71.24;100336.88;4977449;28;20043;-77
2023/10/17 00:57:17;;;;;;;19.67;9.32;;;;;;;9.63;71.31;100337.94;4978610;28;20058;-79
2023/10/17 00:59:50;;;;;;;25.27;10.70;;;;;;;9.59;71.77;100339.00;4974772;28;20061;-79
2023/10/17 01:02:22;;;;;;;15.98;9.95;;;;;;;9.58;71.79;100342.53;4973324;28;20051;-78
2023/10/17 01:04:51;;;;;;;14.82;10.10;;;;;;;9.56;72.17;100340.88;4978314;28;20043;-78
2023/10/17 01:07:31;;;;;;;13.55;9.57;;;;;;;9.57;72.41;100339.97;4994046;28;20058;-78
2023/10/17 01:10:14;;;;;;;17.02;11.00;;;;;;;9.58;72.33;100352.19;4994062;28;20050;-79
2023/10/17 01:12:56;;;;;;;24.48;12.68;;;;;;;9.58;72.43;100345.16;4994110;28;20170;-78
2023/10/17 01:15:27;;;;;;;37.63;12.45;;;;;;;9.59;72.55;100343.38;4984415;28;20075;-77
2023/10/17 01:18:01;;;;;;;71.60;13.13;;;;;;;9.59;72.49;100336.34;4974389;28;20054;-78
2023/10/17 01:20:29;;;;;;;64.32;13.02;;;;;;;9.58;72.62;100339.06;4974892;28;20051;-79
2023/10/17 01:22:56;;;;;;;89.25;12.77;;;;;;;9.58;72.66;100341.69;4986776;28;20083;-79
2023/10/17 01:25:34;;;;;;;36.10;11.13;;;;;;;9.58;72.73;100337.28;4985620;28;20093;-77
2023/10/17 01:28:03;;;;;;;75.97;12.60;;;;;;;9.58;72.59;100336.41;4974389;28;20054;-78
2023/10/17 01:30:30;;;;;;;30.27;12.05;;;;;;;9.56;72.68;100333.00;4974162;28;20057;-79
2023/10/17 01:32:57;;;;;;;39.20;11.27;;;;;;;9.55;72.57;100331.28;4980661;28;20059;-78
2023/10/17 01:35:25;;;;;;;50.33;10.52;;;;;;;9.52;72.50;100327.88;4978321;28;20073;-78
2023/10/17 01:37:52;;;;;;;18.83;10.10;;;;;;;9.51;72.70;100327.94;4993499;28;20051;-78
2023/10/17 01:40:22;;;;;;;24.70;9.93;;;;;;;9.49;72.54;100327.16;4993580;28;20058;-79
2023/10/17 01:42:51;;;;;;;29.05;9.18;;;;;;;9.47;72.41;100324.63;4993019;28;20058;-78
2023/10/17 01:45:23;;;;;;;16.92;9.88;;;;;;;9.44;72.19;100330.00;4993441;28;20054;-79
2023/10/17 01:47:53;;;;;;;32.72;9.38;;;;;;;9.44;72.36;100326.50;4993025;28;20046;-79
2023/10/17 01:50:23;;;;;;;32.33;9.50;;;;;;;9.42;72.31;100336.25;4993293;28;20830;-78
2023/10/17 01:52:53;;;;;;;14.98;8.10;;;;;;;9.39;72.67;100330.19;4992887;28;20054;-78
2023/10/17 01:55:24;;;;;;;13.95;9.57;;;;;;;9.38;72.59;100322.34;4993163;28;20059;-78
2023/10/17 01:57:54;;;;;;;12.25;8.98;;;;;;;9.37;72.55;100318.03;4993295;28;20145;-77
2023/10/17 02:00:39;;;;;;;11.82;8.75;;;;;;;9.36;72.21;100316.31;4992906;28;20049;-77
2023/10/17 02:03:06;;;;;;;12.95;9.27;;;;;;;9.33;72.66;100319.06;4992527;28;20137;-77
2023/10/17 02:05:34;;;;;;;14.60;9.32;;;;;;;9.31;72.75;100318.31;4992995;28;20047;-80
2023/10/17 02:08:01;;;;;;;11.80;9.20;;;;;;;9.29;72.84;100317.50;4992915;28;20062;-78
2023/10/17 02:10:30;;;;;;;15.05;9.75;;;;;;;9.28;72.81;100318.44;4992859;28;20483;-79
2023/10/17 02:12:57;;;;;;;12.85;9.80;;;;;;;9.27;72.83;100312.31;4987128;28;20047;-79
2023/10/17 02:15:23;;;;;;;12.82;9.15;;;;;;;9.27;72.74;100319.34;4974319;28;20082;-79
2023/10/17 02:17:53;;;;;;;13.50;9.40;;;;;;;9.25;73.04;100317.66;4991661;28;20058;-77
2023/10/17 02:20:34;;;;;;;12.30;9.35;;;;;;;9.27;73.07;100319.34;4992867;28;20053;-79
2023/10/17 02:23:19;;;;;;;17.40;9.63;;;;;;;9.27;73.05;100317.56;4981780;28;20054;-79
2023/10/17 02:25:46;;;;;;;15.15;9.48;;;;;;;9.28;72.96;100319.28;4973064;28;20105;-78
2023/10/17 02:28:13;;;;;;;13.52;9.88;;;;;;;9.28;73.10;100318.44;4973162;28;20406;-79
2023/10/17 02:30:39;;;;;;;12.48;9.20;;;;;;;9.28;73.20;100324.53;4973280;28;20070;-77
2023/10/17 02:33:17;;;;;;;12.80;9.95;;;;;;;9.29;73.06;100320.13;4980993;28;20129;-78
2023/10/17 02:36:06;;;;;;;12.73;9.02;;;;;;;9.25;72.65;100317.66;4972949;28;20058;-78
2023/10/17 02:38:32;;;;;;;12.52;9.20;;;;;;;9.28;72.89;100313.16;4972940;28;20059;-78
2023/10/17 02:41:01;;;;;;;11.60;8.73;;;;;;;9.27;72.87;100314.09;4972904;28;20074;-78
2023/10/17 02:43:28;;;;;;;11.45;8.93;;;;;;;9.26;72.67;100307.97;4988756;28;20053;-80
2023/10/17 02:46:04;;;;;;;12.35;8.80;;;;;;;9.24;72.88;100312.47;4989414;28;20105;-78
2023/10/17 02:48:38;;;;;;;10.85;8.70;;;;;;;9.23;72.95;100310.72;4990945;28;20042;-78
2023/10/17 02:51:11;;;;;;;10.73;7.95;;;;;;;9.22;73.08;100309.03;4991167;28;20089;-78
2023/10/17 02:53:43;;;;;;;10.73;8.40;;;;;;;9.22;73.02;100309.03;4992272;28;20046;-78
2023/10/17 02:56:19;;;;;;;11.98;8.45;;;;;;;9.22;72.99;100309.03;4992296;28;20058;-80
2023/10/17 02:59:06;;;;;;;11.52;7.53;;;;;;;9.20;72.47;100306.47;4992030;28;20054;-78
2023/10/17 03:01:36;;;;;;;9.82;6.88;;;;;;;9.23;72.58;100308.97;4988577;28;20495;-77
2023/10/17 03:04:08;;;;;;;10.07;7.00;;;;;;;9.22;72.45;100312.53;4979232;28;20456;-78
2023/10/17 03:06:44;;;;;;;8.23;6.30;;;;;;;9.19;71.97;100310.00;4982143;28;20054;-78
2023/10/17 03:17:21;;;;;;;9.25;7.03;;;;;;;9.22;72.25;100315.16;4983374;28;20054;-78
2023/10/17 03:19:48;;;;;;;9.52;5.97;;;;;;;9.21;72.33;100313.44;4992042;28;20557;-79
2023/10/17 03:22:24;;;;;;;9.43;6.75;;;;;;;9.20;72.32;100311.72;4991644;28;20046;-77
2023/10/17 03:25:00;;;;;;;11.85;6.82;;;;;;;9.19;72.18;100312.63;4976169;28;20050;-80
2023/10/17 03:27:48;;;;;;;9.85;7.55;;;;;;;9.17;72.29;100309.25;4972091;28;20571;-77
2023/10/17 03:30:19;;;;;;;12.40;8.10;;;;;;;9.17;72.40;100311.88;4972500;28;20133;-78
2023/10/17 03:35:29;;;;;;;11.43;7.32;;;;;;;9.14;72.63;100312.00;4972345;28;20095;-79
2023/10/17 03:37:55;;;;;;;10.93;7.30;;;;;;;9.12;72.97;100316.44;4975844;28;20042;-77
2023/10/17 03:40:30;;;;;;;10.95;7.68;;;;;;;9.13;73.09;100312.91;4972430;28;20491;-78
2023/10/17 03:43:08;;;;;;;11.82;8.52;;;;;;;9.13;73.00;100316.38;4972517;28;20078;-80
2023/10/17 03:45:43;;;;;;;13.07;8.93;;;;;;;9.14;73.22;100314.63;4972180;28;20055;-78
2023/10/17 03:48:14;;;;;;;11.93;8.98;;;;;;;9.15;73.42;100312.84;4978402;28;20042;-78
2023/10/17 03:53:29;;;;;;;10.38;8.52;;;;;;;9.14;73.37;100317.25;4990929;28;20058;-79
2023/10/17 03:56:00;;;;;;;13.05;9.55;;;;;;;9.14;73.08;100309.34;4992085;28;20101;-78
2023/10/17 04:01:00;;;;;;;13.57;9.43;;;;;;;9.13;73.00;100318.16;4975995;28;20051;-77
2023/10/17 04:06:02;;;;;;;12.93;9.82;;;;;;;9.12;73.20;100316.44;4975982;28;20137;-80
2023/10/17 04:08:37;;;;;;;13.32;9.35;;;;;;;9.10;73.20;100303.41;4987190;28;20088;-78
2023/10/17 04:13:51;;;;;;;12.43;9.57;;;;;;;9.07;73.00;100302.66;4975747;28;20051;-79
2023/10/17 04:16:26;;;;;;;13.48;9.32;;;;;;;9.05;72.84;100307.97;4976193;28;20055;-77
2023/10/17 04:19:39;;;;;;;16.23;10.65;;;;;;;9.03;73.21;100304.56;4993192;28;20082;-78
2023/10/17 04:22:01;;;;;;;12.57;10.18;;;;;;;9.03;73.40;100301.06;4984678;28;20046;-78
2023/10/17 04:24:47;;;;;;;13.90;9.93;;;;;;;9.01;73.16;100305.53;4995184;28;20050;-77
2023/10/17 04:29:59;;;;;;;14.45;9.98;;;;;;;9.01;73.54;100305.53;4975443;28;20057;-78
2023/10/17 04:32:29;;;;;;;14.75;10.35;;;;;;;8.99;73.47;100303.84;4975505;28;20065;-78
2023/10/17 04:34:56;;;;;;;12.73;9.70;;;;;;;9.00;73.66;100304.69;4974185;28;20497;-78
2023/10/17 04:37:31;;;;;;;13.57;9.85;;;;;;;8.98;73.47;100298.66;4975269;28;20283;-78
2023/10/17 04:45:27;;;;;;;13.45;9.45;;;;;;;8.95;73.29;100302.25;4994819;28;20507;-77
2023/10/17 04:48:17;;;;;;;14.45;10.05;;;;;;;8.92;73.38;100302.38;4986914;28;20043;-77
2023/10/17 04:51:31;;;;;;;14.85;10.15;;;;;;;8.91;73.34;100305.06;4989502;28;20062;-78
2023/10/17 04:53:35;;;;;;;15.27;10.80;;;;;;;8.90;73.01;100308.63;4984112;28;20062;-78
2023/10/17 04:56:52;;;;;;;14.73;10.18;;;;;;;8.88;72.97;100313.06;4994725;28;20046;-77
2023/10/17 04:58:56;;;;;;;20.83;11.85;;;;;;;8.84;72.89;100314.97;4985606;28;20468;-78
2023/10/17 06:18:26;;;;;;;13.20;8.05;;;;;;;8.01;72.71;100325.97;4977605;28;20490;-77
2023/10/17 06:34:17;;;;;;;8.05;4.75;;;;;;;7.89;73.78;100343.00;4973177;28;20059;-78
2023/10/17 06:36:49;;;;;;;7.78;4.90;;;;;;;7.90;74.07;100347.34;4972928;28;20438;-79
2023/10/17 06:39:19;;;;;;;8.80;5.00;;;;;;;7.92;74.04;100350.75;4973128;28;20109;-81
2023/10/17 06:41:47;;;;;;;10.65;5.20;;;;;;;7.93;73.97;100352.47;4975876;28;20109;-79
2023/10/17 06:44:23;;;;;;;11.40;5.68;;;;;;;7.97;74.40;100354.97;4992432;28;20078;-81
2023/10/17 06:47:07;;;;;;;9.50;4.85;;;;;;;8.01;74.23;100353.94;4992190;28;20128;-80
2023/10/17 06:54:46;;;;;;;6.30;4.15;;;;;;;8.12;74.74;100357.06;4978955;28;20058;-77
2023/10/17 06:57:19;;;;;;;;;;;;;;;8.16;73.74;100366.50;4991441;28;20113;-80
2023/10/17 06:59:52;;;;;;;5.50;3.10;;;;;;;8.25;74.49;100359.19;4991972;28;20425;-79
2023/10/17 07:02:28;;;;;;;7.65;3.22;;;;;;;8.26;74.23;100355.69;4990841;28;20145;-78
2023/10/17 07:04:56;;;;;;;6.13;3.30;;;;;;;8.29;74.42;100366.03;4990660;28;20590;-80
2023/10/17 07:07:23;;;;;;;4.63;3.28;;;;;;;8.31;74.22;100372.09;4990961;28;20046;-77
2023/10/17 07:09:56;;;;;;;4.70;3.30;;;;;;;8.33;74.57;100368.50;4992274;28;20074;-78
2023/10/17 07:12:24;;;;;;;7.80;3.45;;;;;;;8.36;74.43;100364.91;4992424;28;20145;-83
2023/10/17 07:14:52;;;;;;;3.88;2.90;;;;;;;8.40;74.43;100369.13;4990663;28;20042;-77
2023/10/17 07:17:32;;;;;;;5.65;3.15;;;;;;;8.44;74.29;100372.47;4991828;28;20119;-81
2023/10/17 07:20:01;;;;;;;6.38;3.15;;;;;;;8.48;74.60;100371.44;4992106;28;20085;-77
2023/10/17 07:22:35;;;;;;;4.85;3.20;;;;;;;8.50;74.75;100372.25;4991969;28;20462;-78
2023/10/17 07:25:02;;;;;;;7.38;3.22;;;;;;;8.53;74.22;100369.53;4990509;28;20043;-84
2023/10/17 07:27:33;;;;;;;6.95;2.80;;;;;;;8.56;74.76;100373.81;4991634;28;20054;-82
2023/10/17 07:30:13;;;;;;;8.27;3.53;;;;;;;8.58;74.39;100378.09;4991173;28;20189;-82
2023/10/17 07:32:46;;;;;;;7.47;4.47;;;;;;;8.62;74.64;100367.44;4991746;28;20050;-78
2023/10/17 07:35:16;;;;;;;;;;;;;;;8.64;73.61;100369.13;4992149;28;20416;-79
2023/10/17 07:37:53;;;;;;;10.23;5.13;;;;;;;8.70;73.73;100374.13;5006559;28;20496;-78
2023/10/17 07:40:31;;;;;;;9.25;5.00;;;;;;;8.70;73.94;100373.25;4991628;28;20603;-77
2023/10/17 07:43:00;;;;;;;7.38;4.72;;;;;;;8.71;74.25;100375.00;4991547;28;20051;-79
2023/10/17 07:45:38;;;;;;;7.75;4.32;;;;;;;8.70;74.15;100368.88;4991477;28;20137;-77
2023/10/17 07:50:54;;;;;;;7.97;3.92;;;;;;;8.75;74.18;100367.84;4991463;28;20447;-77
2023/10/17 07:53:21;;;;;;;6.85;4.68;;;;;;;8.76;74.23;100367.78;4990316;28;20051;-81
2023/10/17 07:55:52;;;;;;;6.68;3.97;;;;;;;8.78;74.24;100372.97;4991362;28;20058;-81
2023/10/17 08:01:07;;;;;;;7.90;4.50;;;;;;;8.81;74.51;100360.56;4991608;28;20054;-82
2023/10/17 08:03:41;;;;;;;8.23;3.95;;;;;;;8.82;73.85;100361.44;4991276;28;20556;-83
2023/10/17 08:06:08;;;;;;;8.88;4.28;;;;;;;8.85;74.66;100361.28;4991389;28;20058;-77
2023/10/17 08:08:44;;;;;;;7.15;4.50;;;;;;;8.87;74.41;100372.59;4991307;28;20061;-83
2023/10/17 08:11:31;;;;;;;7.05;4.70;;;;;;;8.90;74.39;100363.75;4990130;28;20108;-78
2023/10/17 08:14:03;;;;;;;7.60;4.63;;;;;;;8.93;74.75;100358.38;4991564;28;20050;-77
2023/10/17 08:16:32;;;;;;;8.00;4.38;;;;;;;8.96;74.46;100364.34;4991416;28;20058;-78
2023/10/17 08:19:15;;;;;;;5.93;3.80;;;;;;;8.99;74.72;100361.63;4990934;28;20479;-80
2023/10/17 08:24:26;;;;;;;6.55;4.07;;;;;;;9.07;74.89;100347.28;4991201;28;20055;-78
2023/10/17 08:27:13;;;;;;;7.85;4.03;;;;;;;9.10;74.87;100347.19;4991173;28;20054;-79
2023/10/17 08:29:43;;;;;;;5.32;3.65;;;;;;;9.16;74.89;100356.56;4991215;28;20058;-82
2023/10/17 08:34:48;;;;;;;7.55;4.70;;;;;;;9.24;74.90;100357.94;4991287;28;20090;-80
2023/10/17 08:37:19;;;;;;;7.10;4.60;;;;;;;9.29;74.97;100355.16;4991071;28;20066;-78
2023/10/17 08:42:12;;;;;;;7.95;4.07;;;;;;;9.39;75.09;100356.44;4993122;28;20042;-77
2023/10/17 08:44:42;;;;;;;6.70;3.90;;;;;;;9.45;75.17;100355.34;4993271;28;20084;-81
2023/10/17 08:47:15;;;;;;;6.97;4.20;;;;;;;9.51;75.21;100355.09;4994641;28;20101;-79
2023/10/17 08:49:47;;;;;;;7.40;3.78;;;;;;;9.56;74.09;100359.28;4994820;28;20050;-77
2023/10/17 08:52:27;;;;;;;7.40;3.80;;;;;;;9.61;74.07;100350.28;4994825;28;20409;-81
2023/10/17 08:54:54;;;;;;;8.40;3.72;;;;;;;9.70;74.99;100350.78;4994542;28;20116;-81
2023/10/17 08:57:21;;;;;;;8.27;3.53;;;;;;;9.76;74.74;100348.75;4994491;28;20565;-77
2023/10/17 09:02:29;;;;;;;6.10;3.08;;;;;;;9.86;74.79;100359.72;4994252;28;20050;-77
2023/10/17 09:05:01;;;;;;;5.25;2.80;;;;;;;9.90;73.89;100352.53;4994274;28;20116;-78
2023/10/17 09:07:46;;;;;;;7.07;3.30;;;;;;;9.96;74.50;100357.53;4994066;28;20082;-78
2023/10/17 09:10:16;;;;;;;6.60;2.83;;;;;;;10.00;73.96;100345.09;4994522;28;20054;-78
2023/10/17 09:12:43;;;;;;;8.65;3.05;;;;;;;10.06;74.69;100341.34;4992890;28;20093;-79
2023/10/17 09:15:39;;;;;;;5.25;2.40;;;;;;;10.08;73.72;100339.47;4992752;28;20062;-77
2023/10/17 09:18:08;;;;;;;6.18;2.70;;;;;;;10.20;74.83;100340.72;4993915;28;20515;-79
2023/10/17 09:20:39;;;;;;;5.70;2.60;;;;;;;10.24;73.63;100342.28;4994181;28;20140;-79
2023/10/17 09:23:28;;;;;;;9.38;2.35;;;;;;;10.27;72.40;100347.38;4994118;28;20054;-78
2023/10/17 09:26:07;;;;;;;4.68;2.63;;;;;;;10.34;73.07;100340.06;4994000;28;20046;-80
2023/10/17 09:28:35;;;;;;;4.75;2.40;;;;;;;10.39;74.15;100333.66;4993711;28;20153;-80
2023/10/17 09:31:06;;;;;;;4.38;2.40;;;;;;;10.42;73.25;100343.19;4992706;28;20089;-82
2023/10/17 09:33:35;;;;;;;5.38;2.17;;;;;;;10.48;74.13;100332.41;4993981;28;20050;-77
2023/10/17 09:36:04;;;;;;;4.57;2.35;;;;;;;10.53;73.81;100337.44;4993758;28;20148;-78
2023/10/17 09:38:32;;;;;;;6.13;2.50;;;;;;;10.58;73.83;100345.97;4992353;28;20051;-78
2023/10/17 09:41:00;;;;;;;8.50;2.40;;;;;;;10.62;73.60;100344.91;4993611;28;20105;-78
2023/10/17 09:43:49;;;;;;;6.15;2.60;;;;;;;10.66;72.33;100350.91;4993857;28;20042;-78
2023/10/17 09:46:18;;;;;;;6.10;2.28;;;;;;;10.74;73.09;100347.88;4993625;28;20051;-78
2023/10/17 09:48:47;;;;;;;5.40;2.33;;;;;;;10.78;73.33;100349.44;4993494;28;20057;-78
2023/10/17 09:51:22;;;;;;;4.57;2.55;;;;;;;10.79;71.64;100344.09;4992203;28;20100;-78
2023/10/17 09:53:53;;;;;;;7.00;2.42;;;;;;;10.85;71.92;100336.84;4992607;28;20062;-77
2023/10/17 09:56:27;;;;;;;7.57;2.55;;;;;;;10.90;72.59;100342.72;4993513;28;20566;-81
2023/10/17 09:58:59;;;;;;;7.10;2.70;;;;;;;10.95;72.13;100345.97;4993247;28;20458;-81
2023/10/17 10:01:29;;;;;;;5.13;1.95;;;;;;;11.02;72.48;100341.25;4993656;28;20450;-81
2023/10/17 10:03:57;;;;;;;5.50;2.00;;;;;;;11.07;72.82;100339.28;4993277;28;20080;-79
2023/10/17 10:06:30;;;;;;;6.35;1.92;;;;;;;11.14;72.88;100343.28;4992075;28;20128;-80
2023/10/17 10:09:13;;;;;;;5.53;2.28;;;;;;;11.17;71.26;100344.91;4993260;28;20090;-77
2023/10/17 10:11:48;;;;;;;9.02;2.25;;;;;;;11.22;71.14;100350.81;5055432;23;20120;-74
2023/10/17 10:14:22;;;;;;;6.68;2.30;;;;;;;11.32;72.83;100345.91;4992931;28;20089;-76
2023/10/17 10:16:57;;;;;;;5.18;2.33;;;;;;;11.37;71.86;100340.44;4993004;28;20070;-77
2023/10/17 10:19:44;;;;;;;4.43;2.17;;;;;;;11.44;71.00;100344.47;4993124;28;20062;-76
2023/10/17 10:22:12;;;;;;;8.15;1.75;;;;;;;11.56;72.94;100341.16;4992827;28;20046;-77
2023/10/17 10:24:41;;;;;;;5.38;2.30;;;;;;;11.65;73.13;100346.91;4992700;28;20061;-77
2023/10/17 10:27:08;;;;;;;3.92;1.88;;;;;;;11.73;73.24;100348.22;4992771;28;20134;-76
2023/10/17 10:29:35;;;;;;;4.38;1.80;;;;;;;11.83;72.98;100353.88;4992837;28;20050;-77
2023/10/17 10:32:05;;;;;;;4.63;1.80;;;;;;;11.94;73.54;100349.81;4992785;28;20081;-76
2023/10/17 10:34:37;;;;;;;6.90;1.70;;;;;;;12.04;72.03;100353.63;4992690;28;20043;-76
2023/10/17 10:37:04;;;;;;;8.57;1.80;;;;;;;12.18;72.82;100344.19;4992302;28;20430;-79
2023/10/17 10:39:30;;;;;;;4.60;1.80;;;;;;;12.31;72.81;100347.00;4992405;28;20062;-76
2023/10/17 10:42:00;;;;;;;4.13;1.98;;;;;;;12.42;72.41;100344.63;4992627;28;20411;-76
2023/10/17 10:44:28;;;;;;;6.82;2.13;;;;;;;12.53;72.66;100344.03;4992534;28;20085;-76
2023/10/17 10:46:55;;;;;;;5.85;1.80;;;;;;;12.64;71.92;100348.72;4992121;28;20843;-76
2023/10/17 10:49:30;;;;;;;5.82;1.98;;;;;;;12.73;70.39;100347.31;4992366;28;20054;-77
2023/10/17 10:51:58;;;;;;;9.32;2.70;;;;;;;12.85;71.18;100351.03;4992244;28;20046;-77
2023/10/17 10:54:45;;;;;;;3.78;1.88;;;;;;;12.94;70.67;100354.97;4992386;28;20046;-78
2023/10/17 10:57:12;;;;;;;4.13;1.63;;;;;;;13.05;70.25;100343.78;4992143;28;20054;-78
2023/10/17 10:59:49;;;;;;;9.32;1.73;;;;;;;13.11;68.16;100348.69;4992140;28;20570;-77
2023/10/17 11:02:16;;;;;;;4.80;1.90;;;;;;;13.25;70.51;100343.47;4992111;28;20910;-76
2023/10/17 11:04:42;;;;;;;5.13;1.90;;;;;;;13.34;69.60;100341.22;4992085;28;20101;-76
2023/10/17 11:07:22;;;;;;;5.43;2.00;;;;;;;13.39;67.10;100339.97;4991916;28;20056;-77
2023/10/17 11:10:06;;;;;;;7.95;2.40;;;;;;;13.50;66.86;100335.91;4992123;28;20050;-76
2023/10/17 11:12:34;;;;;;;3.53;2.17;;;;;;;13.65;69.81;100337.59;4992206;28;20050;-76
2023/10/17 11:15:14;;;;;;;5.93;1.98;;;;;;;13.76;66.94;100330.81;4991798;28;20096;-77
2023/10/17 11:17:45;;;;;;;6.47;2.88;;;;;;;13.92;68.56;100328.94;4990514;28;20479;-76
2023/10/17 11:20:15;;;;;;;4.68;2.50;;;;;;;14.15;70.91;100324.00;4991927;28;20051;-76
2023/10/17 11:22:42;;;;;;;6.25;2.65;;;;;;;14.44;72.57;100315.13;4991898;28;20046;-76
2023/10/17 11:25:13;;;;;;;5.10;2.65;;;;;;;14.83;71.08;100312.66;4991573;28;20380;-76
2023/10/17 11:27:53;;;;;;;5.43;2.90;;;;;;;15.35;73.24;100310.97;4991710;28;20054;-76
2023/10/17 11:30:20;;;;;;;6.28;3.08;;;;;;;15.99;76.57;100306.59;4991879;28;20058;-76
2023/10/17 11:32:49;;;;;;;4.60;2.88;;;;;;;16.64;76.00;100303.72;4991701;28;20047;-77
2023/10/17 11:35:29;;;;;;;4.78;2.60;;;;;;;17.30;74.10;100297.09;4991589;28;20058;-78
2023/10/17 11:37:58;;;;;;;4.63;2.90;;;;;;;18.01;69.09;100295.19;4991737;28;20104;-77
2023/10/17 11:40:43;;;;;;;4.95;2.63;;;;;;;18.66;69.11;100286.47;4991812;28;20559;-76
2023/10/17 11:43:18;;;;;;;4.20;2.15;;;;;;;19.23;63.40;100282.69;4991608;28;20050;-76
2023/10/17 11:45:45;;;;;;;4.53;2.33;;;;;;;19.73;66.79;100287.28;4991676;28;20459;-76
2023/10/17 11:48:27;;;;;;;3.20;1.98;;;;;;;20.18;60.53;100272.69;4991316;28;20057;-77
2023/10/17 11:51:05;;;;;;;3.27;2.07;;;;;;;20.69;59.92;100274.41;4991669;28;20117;-78
2023/10/17 11:53:32;;;;;;;4.40;2.20;;;;;;;21.16;63.42;100268.34;4991603;28;20051;-74
2023/10/17 11:56:01;;;;;;;6.47;2.80;;;;;;;21.57;62.33;100273.44;4991467;28;20054;-76
2023/10/17 11:58:32;;;;;;;7.07;1.95;;;;;;;21.98;60.87;100270.44;4991180;28;20050;-75
2023/10/17 12:00:59;;;;;;;4.63;2.13;;;;;;;22.35;59.73;100262.47;4991606;28;20050;-77
2023/10/17 12:03:27;;;;;;;7.03;2.35;;;;;;;22.69;58.79;100255.59;4991477;28;20061;-73
2023/10/17 12:05:54;;;;;;;3.97;2.58;;;;;;;22.98;57.13;100254.47;4991156;28;20084;-76
2023/10/17 12:08:29;;;;;;;5.80;2.75;;;;;;;23.21;56.30;100248.59;4991112;28;20479;-76
2023/10/17 12:10:56;;;;;;;4.18;2.50;;;;;;;23.35;55.00;100239.97;4991197;28;20054;-77
2023/10/17 12:13:23;;;;;;;4.20;2.70;;;;;;;23.44;54.80;100238.19;4991541;28;20050;-76
2023/10/17 12:15:49;;;;;;;4.03;2.17;;;;;;;23.48;53.59;100228.78;4990158;28;20057;-75
2023/10/17 12:18:16;;;;;;;4.68;2.53;;;;;;;23.47;52.84;100237.00;4994994;28;20515;-77
2023/10/17 12:20:42;;;;;;;4.68;2.63;;;;;;;23.46;53.10;100236.16;4995044;28;20058;-76
2023/10/17 12:23:12;;;;;;;3.65;2.47;;;;;;;23.47;52.76;100232.47;4995170;28;20113;-75
2023/10/17 12:25:42;;;;;;;4.15;2.47;;;;;;;23.54;53.11;100232.66;4995141;28;20046;-77
2023/10/17 12:28:09;;;;;;;4.22;2.88;;;;;;;23.62;52.99;100221.94;4994820;28;20046;-76
2023/10/17 12:30:36;;;;;;;3.50;2.70;;;;;;;23.68;52.42;100217.78;4995143;28;20050;-76
2023/10/17 12:33:04;;;;;;;4.68;2.90;;;;;;;23.72;51.99;100210.22;4994894;28;20097;-76
2023/10/17 12:35:33;;;;;;;5.15;2.63;;;;;;;23.77;51.22;100221.34;4994779;28;20109;-76
2023/10/17 12:38:06;;;;;;;3.03;2.60;;;;;;;23.82;51.08;100214.44;4994590;28;20057;-77
2023/10/17 12:40:32;;;;;;;3.90;2.53;;;;;;;23.83;50.28;100207.25;4994951;28;20057;-78
2023/10/17 12:43:01;;;;;;;5.30;2.72;;;;;;;23.72;48.70;100212.91;4994852;28;20093;-76
2023/10/17 12:45:30;;;;;;;5.20;2.78;;;;;;;23.45;47.73;100215.69;4994731;28;20054;-77
2023/10/17 12:47:56;;;;;;;5.15;3.50;;;;;;;23.02;47.06;100207.50;4994514;28;20046;-75
2023/10/17 12:50:23;;;;;;;5.13;3.33;;;;;;;22.55;46.94;100203.31;4994468;28;20057;-76
2023/10/17 12:52:50;;;;;;;4.10;3.03;;;;;;;22.00;47.17;100196.09;4994804;28;20061;-76
2023/10/17 12:55:19;;;;;;;4.80;3.35;;;;;;;21.46;47.34;100198.63;4994439;28;20108;-76
2023/10/17 12:57:46;;;;;;;5.95;3.53;;;;;;;20.94;48.04;100202.63;4994437;28;20047;-77
2023/10/17 13:00:14;;;;;;;6.43;3.70;;;;;;;20.44;48.49;100204.47;4994468;28;20050;-75
2023/10/17 13:02:41;;;;;;;4.18;3.15;;;;;;;19.96;48.85;100192.75;4994409;28;20534;-76
2023/10/17 13:05:09;;;;;;;4.65;3.53;;;;;;;19.53;49.53;100193.75;4994206;28;20050;-77
2023/10/17 13:07:37;;;;;;;10.48;3.88;;;;;;;19.15;49.99;100195.28;4993900;28;20057;-77
2023/10/17 13:10:05;;;;;;;5.57;3.50;;;;;;;18.79;50.46;100194.75;4994198;28;20423;-76
2023/10/17 13:12:33;;;;;;;6.18;3.47;;;;;;;18.46;51.39;100186.78;4993104;28;20050;-76
2023/10/17 13:15:00;;;;;;;8.02;3.60;;;;;;;18.16;51.97;100183.06;4994127;28;20047;-75
2023/10/17 13:17:28;;;;;;;5.35;3.05;;;;;;;17.90;52.42;100180.69;4993341;28;20057;-77
2023/10/17 13:19:57;;;;;;;6.18;3.72;;;;;;;17.66;52.75;100168.38;4992582;28;20057;-78
2023/10/17 13:22:24;;;;;;;6.50;3.35;;;;;;;17.47;54.07;100174.31;4988582;28;20086;-76
2023/10/17 13:24:51;;;;;;;6.32;3.45;;;;;;;17.34;54.84;100169.16;4975065;28;20053;-75
2023/10/17 13:27:17;;;;;;;5.22;3.40;;;;;;;17.27;55.02;100172.28;4973441;28;20058;-76
2023/10/17 13:29:46;;;;;;;7.15;3.53;;;;;;;17.21;55.10;100178.09;4974918;28;20126;-75
2023/10/17 13:32:13;;;;;;;5.38;3.40;;;;;;;17.14;55.40;100177.72;4993676;28;20050;-75
2023/10/17 13:34:40;;;;;;;5.70;3.20;;;;;;;17.07;54.94;100184.47;4993646;28;20050;-77
2023/10/17 13:37:09;;;;;;;5.18;3.38;;;;;;;16.95;55.23;100172.97;4993685;28;20227;-77
2023/10/17 13:39:36;;;;;;;7.05;3.70;;;;;;;16.88;56.10;100167.28;4988210;28;20046;-76
2023/10/17 13:42:04;;;;;;;7.80;3.72;;;;;;;16.89;57.05;100162.78;4990654;28;20050;-76
2023/10/17 13:44:31;;;;;;;6.75;3.67;;;;;;;16.91;57.14;100164.38;4980145;28;20109;-76
2023/10/17 13:46:57;;;;;;;6.75;3.22;;;;;;;16.97;56.83;100151.56;4974057;28;20082;-76
2023/10/17 13:49:24;;;;;;;8.98;3.83;;;;;;;16.98;56.49;100155.91;4973531;28;20051;-75
2023/10/17 13:51:55;;;;;;;5.93;3.35;;;;;;;16.96;56.13;100153.38;4981440;28;20098;-74
2023/10/17 13:54:21;;;;;;;6.50;3.10;;;;;;;16.89;56.03;100149.47;4972804;28;20051;-77
2023/10/17 13:56:48;;;;;;;3.80;3.20;;;;;;;16.78;55.44;100153.84;4992745;28;20498;-78
2023/10/17 13:59:15;;;;;;;10.05;3.38;;;;;;;16.65;55.49;100156.59;4993117;28;20065;-75
2023/10/17 14:01:41;;;;;;;6.65;3.45;;;;;;;16.60;57.11;100155.25;4979324;28;20095;-76
2023/10/17 14:04:10;;;;;;;4.78;3.35;;;;;;;16.69;59.54;100151.88;4973661;28;20488;-76
2023/10/17 14:06:42;;;;;;;5.63;2.90;;;;;;;17.01;61.41;100147.72;4973813;28;20455;-75
2023/10/17 14:09:16;;;;;;;4.73;3.13;;;;;;;17.50;62.79;100145.69;4973694;28;20058;-75
2023/10/17 14:11:46;;;;;;;5.82;3.13;;;;;;;18.13;62.27;100144.19;4977851;28;20506;-76
2023/10/17 14:14:15;;;;;;;4.40;2.88;;;;;;;18.73;61.56;100150.81;4987454;28;20053;-76